Time;durP1;ratioP1;P1;durP2;ratioP2;P2;SDS_P1;SDS_P2;PMS_P1;PMS_P2;Temp;Humidity;BMP_temperature;BMP_pressure;BME280_temperature;BME280_humidity;BME280_pressure;Samples;Min_cycle;Max_cycle;Signal;HPM_P1;HPM_P2
2021/08/27 00:01:14;;;;;;;3.07;2.80;;;11.90;99.90;;;;;;6124746;23;20541;-85
2021/08/27 00:03:40;;;;;;;5.17;3.40;;;11.90;99.90;;;;;;6124681;23;20165;-85
2021/08/27 00:06:06;;;;;;;8.60;3.63;;;11.90;99.90;;;;;;6124861;23;20518;-84
2021/08/27 00:08:31;;;;;;;3.07;2.87;;;11.80;99.90;;;;;;6124178;23;20477;-84
2021/08/27 00:10:57;;;;;;;2.80;2.60;;;11.80;99.90;;;;;;6124825;23;20150;-84
2021/08/27 00:13:23;;;;;;;3.20;3.00;;;11.80;99.90;;;;;;6124463;23;20182;-84
2021/08/27 00:15:48;;;;;;;3.30;3.00;;;11.80;99.90;;;;;;6124459;23;20170;-85
2021/08/27 00:18:14;;;;;;;3.27;3.07;;;11.80;99.90;;;;;;6124374;23;20150;-85
2021/08/27 00:20:40;;;;;;;4.77;3.37;;;11.80;99.90;;;;;;6124682;23;20213;-84
2021/08/27 00:23:05;;;;;;;3.60;3.30;;;11.80;99.90;;;;;;6124465;23;20157;-86
2021/08/27 00:25:31;;;;;;;3.80;3.50;;;11.80;99.90;;;;;;6124505;23;20170;-85
2021/08/27 00:27:57;;;;;;;6.17;3.07;;;11.80;99.90;;;;;;6124496;23;20157;-85
2021/08/27 00:30:22;;;;;;;5.10;3.23;;;11.90;99.90;;;;;;6124739;23;20150;-84
2021/08/27 00:32:48;;;;;;;3.93;3.53;;;11.90;99.90;;;;;;6124353;23;20150;-84
2021/08/27 00:35:14;;;;;;;3.43;3.13;;;11.90;99.90;;;;;;6124348;23;20253;-84
2021/08/27 00:37:39;;;;;;;4.40;3.27;;;11.90;99.90;;;;;;6124272;23;20153;-84
2021/08/27 00:40:06;;;;;;;3.43;3.03;;;11.90;99.90;;;;;;6124179;23;20157;-84
2021/08/27 00:42:32;;;;;;;4.83;3.73;;;11.90;99.90;;;;;;6126094;23;20268;-85
2021/08/27 00:44:58;;;;;;;3.93;3.60;;;12.00;99.90;;;;;;6124426;23;20446;-84
2021/08/27 00:47:23;;;;;;;4.43;3.90;;;11.90;99.90;;;;;;6124454;23;20154;-85
2021/08/27 00:49:49;;;;;;;3.80;3.40;;;12.00;99.90;;;;;;6124095;23;20260;-84
2021/08/27 00:52:15;;;;;;;4.60;4.03;;;11.90;99.90;;;;;;6124331;23;20154;-84
2021/08/27 00:54:47;;;;;;;4.00;3.70;;;11.90;99.90;;;;;;6124179;23;20193;-85
2021/08/27 00:57:13;;;;;;;4.20;3.80;;;11.90;99.90;;;;;;6124394;23;20151;-85
2021/08/27 00:59:39;;;;;;;4.00;3.70;;;11.80;99.90;;;;;;6123907;23;20850;-85
2021/08/27 01:02:06;;;;;;;5.20;4.70;;;11.80;99.90;;;;;;6124300;23;20176;-84
2021/08/27 01:04:32;;;;;;;9.07;6.40;;;11.80;99.90;;;;;;6124147;23;20182;-84
2021/08/27 01:07:20;;;;;;;9.43;6.47;;;11.80;99.90;;;;;;6123906;23;20879;-85
2021/08/27 01:09:55;;;;;;;8.00;6.27;;;11.80;99.90;;;;;;6124096;23;20397;-84
2021/08/27 01:12:41;;;;;;;6.10;5.33;;;11.80;99.90;;;;;;6124262;23;20384;-85
2021/08/27 01:15:10;;;;;;;7.97;5.73;;;11.90;99.90;;;;;;6124005;23;20464;-85
2021/08/27 01:17:42;;;;;;;5.20;4.70;;;11.90;99.90;;;;;;6124127;23;20799;-85
2021/08/27 01:20:29;;;;;;;6.10;4.93;;;11.90;99.90;;;;;;6123929;23;20761;-85
2021/08/27 01:23:14;;;;;;;9.17;6.07;;;11.90;99.90;;;;;;6124190;23;20366;-84
2021/08/27 01:25:51;;;;;;;5.50;5.00;;;11.90;99.90;;;;;;6124135;23;20871;-85
2021/08/27 01:28:18;;;;;;;6.30;5.70;;;11.90;99.90;;;;;;6123818;23;20369;-85
2021/08/27 01:31:02;;;;;;;5.43;4.80;;;11.90;99.90;;;;;;6124214;23;20461;-85
2021/08/27 01:33:30;;;;;;;6.80;5.33;;;11.90;99.90;;;;;;6123934;23;20936;-86
2021/08/27 01:36:00;;;;;;;7.83;4.60;;;11.80;99.90;;;;;;6124031;23;20393;-85
2021/08/27 01:38:32;;;;;;;4.63;4.20;;;11.80;99.90;;;;;;6123592;23;20373;-85
2021/08/27 01:40:58;;;;;;;7.00;4.80;;;11.80;99.90;;;;;;6124137;23;20708;-85
2021/08/27 01:43:27;;;;;;;4.73;4.20;;;11.80;99.90;;;;;;6123868;23;20768;-85
2021/08/27 01:45:58;;;;;;;5.80;4.60;;;11.80;99.90;;;;;;6123973;23;20892;-85
2021/08/27 01:48:26;;;;;;;4.00;3.70;;;11.80;99.90;;;;;;6123502;23;20421;-85
2021/08/27 01:50:54;;;;;;;5.23;4.83;;;11.80;99.90;;;;;;6123910;23;20393;-85
2021/08/27 01:53:25;;;;;;;5.13;4.60;;;11.80;99.90;;;;;;6123869;23;20945;-85
2021/08/27 01:56:01;;;;;;;6.20;4.53;;;11.80;99.90;;;;;;6123641;23;20394;-85
2021/08/27 01:58:30;;;;;;;4.37;4.17;;;11.70;99.90;;;;;;6123566;23;20374;-85
2021/08/27 02:00:57;;;;;;;4.30;3.90;;;11.70;99.90;;;;;;6123740;23;20934;-85
2021/08/27 02:03:25;;;;;;;4.10;3.90;;;11.70;99.90;;;;;;6123721;23;20412;-85
2021/08/27 02:05:51;;;;;;;4.70;4.40;;;11.70;99.90;;;;;;6123698;23;20402;-85
2021/08/27 02:08:19;;;;;;;4.60;4.30;;;11.70;99.90;;;;;;6126409;23;20400;-85
2021/08/27 02:10:46;;;;;;;5.10;4.60;;;11.70;99.90;;;;;;6128664;23;20395;-84
2021/08/27 02:13:12;;;;;;;5.80;4.73;;;11.70;99.90;;;;;;6128449;23;20404;-85
2021/08/27 02:15:40;;;;;;;6.20;4.20;;;11.70;99.90;;;;;;6128378;23;20428;-85
2021/08/27 02:18:06;;;;;;;4.37;4.07;;;11.70;99.90;;;;;;6128160;23;20432;-85
2021/08/27 02:20:34;;;;;;;5.80;3.97;;;11.70;99.90;;;;;;6128219;23;20369;-85
2021/08/27 02:23:03;;;;;;;5.33;4.10;;;11.70;99.90;;;;;;6128466;23;20157;-85
2021/08/27 02:25:31;;;;;;;5.67;4.20;;;11.60;99.90;;;;;;6128531;23;20393;-85
2021/08/27 02:28:00;;;;;;;5.53;3.87;;;11.60;99.90;;;;;;6128279;23;20377;-86
2021/08/27 02:30:27;;;;;;;4.00;3.70;;;11.60;99.90;;;;;;6128271;23;20377;-85
2021/08/27 02:32:54;;;;;;;5.03;4.03;;;11.60;99.90;;;;;;6128184;23;20892;-85
2021/08/27 02:35:20;;;;;;;4.53;4.13;;;11.60;99.90;;;;;;6128291;23;20496;-85
2021/08/27 02:37:48;;;;;;;4.70;4.27;;;11.60;99.90;;;;;;6128355;23;20381;-84
2021/08/27 02:40:14;;;;;;;4.27;3.80;;;11.60;99.90;;;;;;6128182;23;20468;-86
2021/08/27 02:42:41;;;;;;;4.47;4.13;;;11.60;99.90;;;;;;6128363;23;20802;-84
2021/08/27 02:45:07;;;;;;;4.70;4.30;;;11.60;99.90;;;;;;6128365;23;20416;-85
2021/08/27 02:47:33;;;;;;;4.40;4.00;;;11.60;99.90;;;;;;6128877;23;20377;-85
2021/08/27 02:49:59;;;;;;;4.23;3.93;;;11.50;99.90;;;;;;6128533;23;20570;-85
2021/08/27 02:52:32;;;;;;;5.57;3.80;;;11.50;99.90;;;;;;6128610;23;20518;-85
2021/08/27 02:55:06;;;;;;;4.53;4.23;;;11.50;99.90;;;;;;6128125;23;20433;-85
2021/08/27 02:57:39;;;;;;;3.87;3.47;;;11.50;99.90;;;;;;6128273;23;20467;-85
2021/08/27 03:00:08;;;;;;;3.20;3.00;;;11.50;99.90;;;;;;6128082;23;20369;-85
2021/08/27 03:02:34;;;;;;;8.37;4.63;;;11.50;99.90;;;;;;6128207;23;20389;-85
2021/08/27 03:05:12;;;;;;;4.80;4.20;;;11.60;99.90;;;;;;6128162;23;20401;-85
2021/08/27 03:07:49;;;;;;;3.70;2.80;;;11.60;99.90;;;;;;6128262;23;20420;-85
2021/08/27 03:10:28;;;;;;;3.23;3.03;;;11.50;99.90;;;;;;6122913;23;20429;-84
2021/08/27 03:13:04;;;;;;;4.63;3.57;;;11.60;99.90;;;;;;6123256;23;20369;-85
2021/08/27 03:15:37;;;;;;;6.13;3.83;;;11.60;99.90;;;;;;6123142;23;20500;-84
2021/08/27 03:18:33;;;;;;;4.53;3.27;;;11.60;99.90;;;;;;6098671;23;20409;-84
2021/08/27 03:21:20;;;;;;;4.30;3.30;;;11.60;99.90;;;;;;6123370;23;20392;-84
2021/08/27 03:23:50;;;;;;;6.50;4.30;;;11.60;99.90;;;;;;6123614;23;20385;-85
2021/08/27 03:26:27;;;;;;;4.07;3.13;;;11.60;99.90;;;;;;6123125;23;20410;-84
2021/08/27 03:28:59;;;;;;;4.13;2.57;;;11.60;99.90;;;;;;6122758;23;20858;-84
2021/08/27 03:31:26;;;;;;;5.97;3.43;;;11.60;99.90;;;;;;6124506;23;20386;-84
2021/08/27 03:33:55;;;;;;;3.10;2.47;;;11.60;99.90;;;;;;6125471;23;20477;-85
2021/08/27 03:36:29;;;;;;;4.07;3.03;;;11.50;99.90;;;;;;6125064;23;20447;-84
2021/08/27 03:38:56;;;;;;;2.53;2.30;;;11.60;99.90;;;;;;6124791;23;20870;-84
2021/08/27 03:41:26;;;;;;;6.30;2.67;;;11.50;99.90;;;;;;6125008;23;20369;-85
2021/08/27 03:43:54;;;;;;;5.47;3.53;;;11.50;99.90;;;;;;6124968;23;20382;-85
2021/08/27 03:46:20;;;;;;;2.30;2.20;;;11.50;99.90;;;;;;6125030;23;20488;-85
2021/08/27 03:48:48;;;;;;;5.20;2.60;;;11.50;99.90;;;;;;6124599;23;20384;-84
2021/08/27 03:51:15;;;;;;;5.60;3.40;;;11.50;99.90;;;;;;6125092;23;20378;-84
2021/08/27 03:53:43;;;;;;;6.13;3.30;;;11.40;99.90;;;;;;6126332;23;20890;-84
2021/08/27 03:56:10;;;;;;;3.43;3.17;;;11.40;99.90;;;;;;6124845;23;20394;-84
2021/08/27 03:58:37;;;;;;;4.53;3.37;;;11.40;99.90;;;;;;6124489;23;20389;-84
2021/08/27 04:01:04;;;;;;;3.50;3.10;;;11.40;99.90;;;;;;6124982;23;20382;-85
2021/08/27 04:03:30;;;;;;;3.50;2.93;;;11.40;99.90;;;;;;6124897;23;20388;-84
2021/08/27 04:06:04;;;;;;;3.27;3.00;;;11.30;99.90;;;;;;6124691;23;20496;-84
2021/08/27 04:08:42;;;;;;;6.90;3.57;;;11.30;99.90;;;;;;6124609;23;20165;-84
2021/08/27 04:11:10;;;;;;;6.70;2.73;;;11.30;99.90;;;;;;6124814;23;20432;-84
2021/08/27 04:13:36;;;;;;;6.03;3.37;;;11.30;99.90;;;;;;6124671;23;20425;-84
2021/08/27 04:16:03;;;;;;;6.97;3.20;;;11.30;99.90;;;;;;6124729;23;20742;-85
2021/08/27 04:18:29;;;;;;;3.10;2.90;;;11.40;99.90;;;;;;6124354;23;20409;-84
2021/08/27 04:20:55;;;;;;;5.13;3.33;;;11.40;99.90;;;;;;6126272;23;20394;-84
2021/08/27 04:23:20;;;;;;;6.93;3.73;;;11.40;99.90;;;;;;6124682;23;20154;-85
2021/08/27 04:25:46;;;;;;;5.83;3.33;;;11.30;99.90;;;;;;6124589;23;20174;-84
2021/08/27 04:28:12;;;;;;;4.80;3.60;;;11.30;99.90;;;;;;6124294;23;20158;-84
2021/08/27 04:30:38;;;;;;;6.80;3.47;;;11.30;99.90;;;;;;6124648;23;20169;-85
2021/08/27 04:33:04;;;;;;;4.80;4.13;;;11.30;99.90;;;;;;6124484;23;20215;-84
2021/08/27 04:35:30;;;;;;;6.23;3.50;;;11.40;99.90;;;;;;6124530;23;20402;-86
2021/08/27 04:37:56;;;;;;;5.03;4.43;;;11.40;99.90;;;;;;6124449;23;20384;-84
2021/08/27 04:40:23;;;;;;;4.57;3.30;;;11.40;99.90;;;;;;6124298;23;20150;-84
2021/08/27 04:42:49;;;;;;;4.33;4.03;;;11.40;99.90;;;;;;6124069;23;20469;-85
2021/08/27 04:45:15;;;;;;;3.87;3.60;;;11.40;99.90;;;;;;6124447;23;20433;-84
2021/08/27 04:47:43;;;;;;;8.83;4.80;;;11.50;99.90;;;;;;6124434;23;20382;-84
2021/08/27 04:50:10;;;;;;;4.37;3.93;;;11.50;99.90;;;;;;6124219;23;20386;-82
2021/08/27 04:52:37;;;;;;;3.83;3.63;;;11.50;99.90;;;;;;6125977;23;20708;-84
2021/08/27 04:55:04;;;;;;;5.93;3.70;;;11.50;99.90;;;;;;6124269;23;20512;-84
2021/08/27 04:57:30;;;;;;;3.77;3.57;;;11.50;99.90;;;;;;6124337;23;20370;-84
2021/08/27 04:59:56;;;;;;;3.83;3.63;;;11.50;99.90;;;;;;6124151;23;20417;-84
2021/08/27 05:02:22;;;;;;;3.60;3.30;;;11.50;99.90;;;;;;6124250;23;20388;-84
2021/08/27 05:04:47;;;;;;;7.23;4.80;;;11.50;99.90;;;;;;6124298;23;20877;-84
2021/08/27 05:07:13;;;;;;;4.70;3.80;;;11.50;99.90;;;;;;6124300;23;20245;-84
2021/08/27 05:09:39;;;;;;;5.90;4.77;;;11.50;99.90;;;;;;6123726;23;20198;-84
2021/08/27 05:12:05;;;;;;;4.70;4.40;;;11.50;99.90;;;;;;6124279;23;20154;-84
2021/08/27 05:14:30;;;;;;;6.50;3.90;;;11.50;99.90;;;;;;6124046;23;20197;-84
2021/08/27 05:16:56;;;;;;;7.87;4.10;;;11.50;99.90;;;;;;6124236;23;20835;-85
2021/08/27 05:19:21;;;;;;;4.73;4.33;;;11.60;99.90;;;;;;6123806;23;20160;-84
2021/08/27 05:21:47;;;;;;;3.90;3.60;;;11.60;99.90;;;;;;6124079;23;20241;-84
2021/08/27 05:24:13;;;;;;;4.67;4.00;;;11.60;99.90;;;;;;6124024;23;20158;-84
2021/08/27 05:26:39;;;;;;;7.23;4.17;;;11.60;99.90;;;;;;6124154;23;20241;-83
2021/08/27 05:29:05;;;;;;;3.97;3.60;;;11.60;99.90;;;;;;6123808;23;20164;-84
2021/08/27 05:31:31;;;;;;;6.50;3.80;;;11.70;99.90;;;;;;6124012;23;20253;-83
2021/08/27 05:33:59;;;;;;;3.90;3.67;;;11.70;99.90;;;;;;6123973;23;20428;-84
2021/08/27 05:36:25;;;;;;;4.17;3.87;;;11.70;99.90;;;;;;6123961;23;20398;-84
2021/08/27 05:38:51;;;;;;;4.00;3.70;;;11.70;99.90;;;;;;6123678;23;20382;-83
2021/08/27 05:41:17;;;;;;;8.60;4.37;;;11.70;99.90;;;;;;6123958;23;20847;-84
2021/08/27 05:43:43;;;;;;;5.03;3.63;;;11.70;99.90;;;;;;6124020;23;20205;-83
2021/08/27 05:46:08;;;;;;;6.10;5.03;;;11.80;99.90;;;;;;6123741;23;20173;-84
2021/08/27 05:48:34;;;;;;;8.20;4.30;;;11.80;99.90;;;;;;6123603;23;20390;-84
2021/08/27 05:50:59;;;;;;;4.40;3.97;;;11.80;99.90;;;;;;6123882;23;20158;-84
2021/08/27 05:53:25;;;;;;;5.00;3.97;;;11.90;99.90;;;;;;6123649;23;20181;-84
2021/08/27 05:55:51;;;;;;;4.30;4.00;;;11.90;99.90;;;;;;6123916;23;20638;-84
2021/08/27 05:58:16;;;;;;;8.10;3.87;;;12.00;99.90;;;;;;6123522;23;20241;-84
2021/08/27 06:00:42;;;;;;;6.07;3.80;;;12.00;99.90;;;;;;6123684;23;20536;-84
2021/08/27 06:03:08;;;;;;;3.87;3.30;;;12.00;99.90;;;;;;6123761;23;20158;-84
2021/08/27 06:05:33;;;;;;;3.87;3.57;;;12.10;99.90;;;;;;6123716;23;20170;-84
2021/08/27 06:07:59;;;;;;;5.57;3.40;;;12.10;99.90;;;;;;6123398;23;20155;-85
2021/08/27 06:10:25;;;;;;;9.17;4.20;;;12.10;99.90;;;;;;6123590;23;20174;-84
2021/08/27 06:12:50;;;;;;;2.77;2.57;;;12.10;99.90;;;;;;6123680;23;20618;-84
2021/08/27 06:15:16;;;;;;;4.40;4.00;;;12.10;99.90;;;;;;6123458;23;20588;-85
2021/08/27 06:17:42;;;;;;;9.30;4.60;;;12.20;99.90;;;;;;6123615;23;20530;-84
2021/08/27 06:20:09;;;;;;;5.33;4.30;;;12.20;99.90;;;;;;6123307;23;20440;-84
2021/08/27 06:22:35;;;;;;;20.20;5.60;;;12.20;99.90;;;;;;6123671;23;20146;-84
2021/08/27 06:25:01;;;;;;;19.37;6.10;;;12.20;99.90;;;;;;6123535;23;20408;-84
2021/08/27 06:27:27;;;;;;;6.60;3.90;;;12.20;99.90;;;;;;6123649;23;20472;-83
2021/08/27 06:29:53;;;;;;;12.97;5.10;;;12.20;99.90;;;;;;6123163;23;20425;-84
2021/08/27 06:32:19;;;;;;;26.47;8.10;;;12.20;99.90;;;;;;6123540;23;20245;-84
2021/08/27 06:34:45;;;;;;;14.63;4.03;;;12.20;99.90;;;;;;6123347;23;20930;-85
2021/08/27 06:37:11;;;;;;;7.13;4.30;;;12.20;99.90;;;;;;6123412;23;20701;-84
2021/08/27 06:39:37;;;;;;;16.00;6.77;;;12.20;99.90;;;;;;6123069;23;20377;-84
2021/08/27 06:42:03;;;;;;;13.80;5.47;;;12.30;99.90;;;;;;6123472;23;20452;-84
2021/08/27 06:44:29;;;;;;;8.60;5.40;;;12.30;99.90;;;;;;6123184;23;20456;-83
2021/08/27 06:46:55;;;;;;;17.90;4.87;;;12.30;99.90;;;;;;6123463;23;20389;-84
2021/08/27 06:49:20;;;;;;;22.63;6.17;;;12.40;99.90;;;;;;6123146;23;20160;-84
2021/08/27 06:51:47;;;;;;;20.90;6.60;;;12.40;99.90;;;;;;6123469;23;20157;-84
2021/08/27 06:54:12;;;;;;;16.63;6.00;;;12.40;99.90;;;;;;6123135;23;20212;-84
2021/08/27 06:56:38;;;;;;;8.50;5.07;;;12.40;99.90;;;;;;6123289;23;20457;-84
2021/08/27 06:59:04;;;;;;;6.33;4.30;;;12.50;99.90;;;;;;6122989;23;20150;-83
2021/08/27 07:01:30;;;;;;;4.93;4.43;;;12.60;99.90;;;;;;6123425;23;20452;-83
2021/08/27 07:03:55;;;;;;;9.50;5.97;;;12.70;99.90;;;;;;6123353;23;20373;-85
2021/08/27 07:06:21;;;;;;;7.30;4.90;;;12.60;99.90;;;;;;6123159;23;20178;-85
2021/08/27 07:08:48;;;;;;;4.33;4.03;;;12.60;99.90;;;;;;6122810;23;20526;-84
2021/08/27 07:11:15;;;;;;;6.23;4.60;;;12.60;99.90;;;;;;6123339;23;20405;-84
2021/08/27 07:13:43;;;;;;;9.47;4.83;;;12.60;99.90;;;;;;6123045;23;20765;-85
2021/08/27 07:16:08;;;;;;;4.40;3.97;;;12.70;99.90;;;;;;6123210;23;20449;-84
2021/08/27 07:18:34;;;;;;;10.53;4.73;;;12.60;99.90;;;;;;6123033;23;20386;-84
2021/08/27 07:21:00;;;;;;;4.67;4.20;;;12.70;99.90;;;;;;6123224;23;20232;-85
2021/08/27 07:23:26;;;;;;;6.13;4.37;;;12.60;99.90;;;;;;6123358;23;20228;-85
2021/08/27 07:25:51;;;;;;;5.40;4.33;;;12.70;99.90;;;;;;6123198;23;20177;-86
2021/08/27 07:28:17;;;;;;;9.00;4.33;;;12.70;99.90;;;;;;6122828;23;20161;-85
2021/08/27 07:30:44;;;;;;;6.97;4.83;;;12.70;99.90;;;;;;6123364;23;20241;-84
2021/08/27 07:33:10;;;;;;;6.63;4.13;;;12.70;99.90;;;;;;6123161;23;20950;-85
2021/08/27 07:35:36;;;;;;;5.77;4.00;;;12.80;99.90;;;;;;6123168;23;20402;-85
2021/08/27 07:38:02;;;;;;;6.57;3.90;;;12.80;99.90;;;;;;6122805;23;20377;-84
2021/08/27 07:40:27;;;;;;;5.27;4.87;;;12.80;99.90;;;;;;6123149;23;20627;-85
2021/08/27 07:42:53;;;;;;;5.50;3.77;;;12.90;99.90;;;;;;6123072;23;20378;-84
2021/08/27 07:45:19;;;;;;;5.20;4.70;;;12.90;99.90;;;;;;6123153;23;20401;-84
2021/08/27 07:47:46;;;;;;;5.30;4.90;;;12.90;99.90;;;;;;6123281;23;20165;-85
2021/08/27 07:50:13;;;;;;;5.43;4.93;;;12.90;99.90;;;;;;6122843;23;20397;-85
2021/08/27 07:52:39;;;;;;;6.67;5.67;;;12.90;99.90;;;;;;6123027;23;20381;-84
2021/08/27 07:55:06;;;;;;;5.10;4.60;;;12.90;99.90;;;;;;6123019;23;20734;-85
2021/08/27 07:57:33;;;;;;;8.40;4.53;;;12.80;99.90;;;;;;6123117;23;20855;-85
2021/08/27 07:59:58;;;;;;;4.40;4.10;;;12.80;99.90;;;;;;6122830;23;20830;-85
2021/08/27 08:02:24;;;;;;;6.50;5.90;;;12.80;99.90;;;;;;6123236;23;20377;-85
2021/08/27 08:04:50;;;;;;;5.77;4.53;;;12.90;99.90;;;;;;6123126;23;20181;-86
2021/08/27 08:07:15;;;;;;;7.73;4.30;;;13.00;99.90;;;;;;6123545;23;20161;-86
2021/08/27 08:09:41;;;;;;;7.80;4.33;;;13.00;99.90;;;;;;6122593;23;20269;-86
2021/08/27 08:12:07;;;;;;;5.63;4.67;;;13.00;99.90;;;;;;6123230;23;20166;-86
2021/08/27 08:14:33;;;;;;;8.00;4.33;;;13.00;99.90;;;;;;6123057;23;20449;-86
2021/08/27 08:16:59;;;;;;;4.20;3.90;;;13.10;99.90;;;;;;6123207;23;20480;-85
2021/08/27 08:19:24;;;;;;;6.73;5.33;;;13.10;99.90;;;;;;6124577;23;20501;-86
2021/08/27 08:21:50;;;;;;;4.90;3.73;;;13.00;99.90;;;;;;6124981;23;20150;-85
2021/08/27 08:24:16;;;;;;;5.90;4.50;;;13.10;99.90;;;;;;6124785;23;20205;-86
2021/08/27 08:26:41;;;;;;;4.90;4.47;;;13.10;99.90;;;;;;6124909;23;20161;-85
2021/08/27 08:29:07;;;;;;;5.07;4.67;;;13.10;99.90;;;;;;6124542;23;20217;-86
2021/08/27 08:31:33;;;;;;;6.03;5.60;;;13.20;99.90;;;;;;6124791;23;20208;-86
2021/08/27 08:33:59;;;;;;;5.27;4.87;;;13.20;99.90;;;;;;6124716;23;20623;-85
2021/08/27 08:36:25;;;;;;;6.77;5.10;;;13.20;99.90;;;;;;6124717;23;20398;-84
2021/08/27 08:38:52;;;;;;;5.80;5.23;;;13.20;99.90;;;;;;6124590;23;20154;-85
2021/08/27 08:41:19;;;;;;;7.30;5.60;;;13.30;99.90;;;;;;6124559;23;20169;-85
2021/08/27 08:43:46;;;;;;;12.63;5.60;;;13.20;99.90;;;;;;6124586;23;20392;-85
2021/08/27 08:46:14;;;;;;;8.67;5.73;;;13.20;99.90;;;;;;6124494;23;20457;-85
2021/08/27 08:48:44;;;;;;;6.23;5.73;;;13.30;99.90;;;;;;6124236;23;20788;-86
2021/08/27 08:51:11;;;;;;;6.37;5.60;;;13.40;99.90;;;;;;6124749;23;20374;-86
2021/08/27 08:53:40;;;;;;;5.10;4.70;;;13.30;99.90;;;;;;6124184;23;20429;-85
2021/08/27 08:56:08;;;;;;;7.47;4.97;;;13.30;99.90;;;;;;6124593;23;20477;-85
2021/08/27 08:58:34;;;;;;;5.57;4.43;;;13.30;99.90;;;;;;6124200;23;20389;-86
2021/08/27 09:01:00;;;;;;;8.33;6.13;;;13.30;99.90;;;;;;6124603;23;20757;-86
2021/08/27 09:03:25;;;;;;;5.23;4.47;;;13.30;99.90;;;;;;6124774;23;20154;-87
2021/08/27 09:05:51;;;;;;;4.70;4.30;;;13.40;99.90;;;;;;6124471;23;20464;-87
2021/08/27 09:08:44;;;;;;;4.73;4.33;;;13.40;99.90;;;;;;6127146;23;20502;-85
2021/08/27 09:11:21;;;;;;;4.63;4.10;;;13.70;99.90;;;;;;6114045;23;20377;-85
2021/08/27 09:13:49;;;;;;;7.10;4.50;;;14.00;99.90;;;;;;6129280;23;21079;-86
2021/08/27 09:16:16;;;;;;;3.97;3.57;;;14.10;99.90;;;;;;6129128;23;20397;-86
2021/08/27 09:18:48;;;;;;;5.50;4.07;;;14.20;99.90;;;;;;6128749;23;20381;-86
2021/08/27 09:21:26;;;;;;;6.77;3.40;;;14.30;99.90;;;;;;6129142;23;20367;-84
2021/08/27 09:24:24;;;;;;;6.83;3.43;;;14.30;99.90;;;;;;6129153;23;20385;-85
2021/08/27 09:26:58;;;;;;;6.40;3.30;;;14.40;99.90;;;;;;6129054;23;20385;-83
2021/08/27 09:29:44;;;;;;;3.77;3.23;;;14.50;99.90;;;;;;6128636;23;20878;-84
2021/08/27 09:32:27;;;;;;;3.73;3.30;;;14.70;99.90;;;;;;6128939;23;20786;-84
2021/08/27 09:35:00;;;;;;;3.37;3.10;;;14.80;99.90;;;;;;6128895;23;20507;-86
2021/08/27 09:37:50;;;;;;;3.23;3.03;;;14.80;99.90;;;;;;6128793;23;20464;-85
2021/08/27 09:40:27;;;;;;;2.57;2.23;;;14.80;99.90;;;;;;6128655;23;20853;-84
2021/08/27 09:42:54;;;;;;;8.47;4.60;;;14.80;99.90;;;;;;6128918;23;20381;-85
2021/08/27 09:45:32;;;;;;;3.30;3.00;;;14.80;99.90;;;;;;6128799;23;20439;-85
2021/08/27 09:47:59;;;;;;;3.10;2.80;;;14.90;99.90;;;;;;6128634;23;20476;-85
2021/08/27 09:50:28;;;;;;;3.40;3.03;;;15.00;99.90;;;;;;6128895;23;20381;-86
2021/08/27 09:53:02;;;;;;;3.60;2.67;;;15.00;99.90;;;;;;6128788;23;20385;-85
2021/08/27 09:55:30;;;;;;;3.87;2.67;;;14.90;99.90;;;;;;6128713;23;20427;-85
2021/08/27 09:58:10;;;;;;;9.90;4.03;;;14.90;99.90;;;;;;6128708;23;20373;-85
2021/08/27 10:00:41;;;;;;;3.40;2.57;;;14.90;99.90;;;;;;6128759;23;20727;-86
2021/08/27 10:03:25;;;;;;;3.60;2.50;;;14.80;99.90;;;;;;6128682;23;20397;-85
2021/08/27 10:05:54;;;;;;;7.70;2.70;;;14.70;99.90;;;;;;6128663;23;20492;-85
2021/08/27 10:08:33;;;;;;;5.93;2.93;;;14.80;99.90;;;;;;6128187;23;20377;-85
2021/08/27 10:11:21;;;;;;;3.30;2.97;;;14.90;99.90;;;;;;6128752;23;20432;-85
2021/08/27 10:13:47;;;;;;;3.30;3.10;;;15.30;99.90;;;;;;6128544;23;20507;-84
2021/08/27 10:16:13;;;;;;;3.40;3.10;;;15.60;99.90;;;;;;6128522;23;20393;-86
2021/08/27 10:18:40;;;;;;;3.90;3.10;;;15.80;99.90;;;;;;6128425;23;20995;-85
2021/08/27 10:21:06;;;;;;;5.00;2.90;;;15.90;99.90;;;;;;6128409;23;20384;-85
2021/08/27 10:23:32;;;;;;;5.80;3.70;;;15.90;99.90;;;;;;6128409;23;20384;-84
2021/08/27 10:26:19;;;;;;;4.93;2.50;;;16.10;99.90;;;;;;6128469;23;20173;-85
2021/08/27 10:28:46;;;;;;;2.87;2.67;;;16.40;99.90;;;;;;6127242;23;20160;-84
2021/08/27 10:31:12;;;;;;;3.23;3.07;;;17.00;99.90;;;;;;6128547;23;20373;-85
2021/08/27 10:33:41;;;;;;;6.80;3.37;;;17.60;99.90;;;;;;6128249;23;20420;-84
2021/08/27 10:36:11;;;;;;;2.80;2.47;;;17.60;99.90;;;;;;6128270;23;20405;-86
2021/08/27 10:38:46;;;;;;;2.33;2.20;;;17.40;99.90;;;;;;6128027;23;20845;-84
2021/08/27 10:41:12;;;;;;;10.23;3.90;;;17.30;99.90;;;;;;6127998;23;20439;-84
2021/08/27 10:43:54;;;;;;;4.80;3.10;;;17.10;99.90;;;;;;6128424;23;20425;-85
2021/08/27 10:46:20;;;;;;;3.73;3.27;;;16.90;99.90;;;;;;6128296;23;20199;-84
2021/08/27 10:48:54;;;;;;;5.10;2.83;;;16.80;99.90;;;;;;6127982;23;20408;-86
2021/08/27 10:51:33;;;;;;;5.70;2.97;;;16.80;99.90;;;;;;6128383;23;20419;-85
2021/08/27 10:53:59;;;;;;;3.50;2.83;;;16.80;99.90;;;;;;6128169;23;20428;-86
2021/08/27 10:56:53;;;;;;;2.50;2.30;;;16.90;99.90;;;;;;6128322;23;20393;-85
2021/08/27 10:59:39;;;;;;;3.13;2.93;;;16.80;99.90;;;;;;6127857;23;20372;-85
2021/08/27 11:02:05;;;;;;;3.33;3.03;;;16.80;99.90;;;;;;6127517;23;20439;-85
2021/08/27 11:04:41;;;;;;;4.10;2.40;;;16.60;99.90;;;;;;6128069;23;20397;-85
2021/08/27 11:07:18;;;;;;;4.80;2.40;;;16.50;99.90;;;;;;6128397;23;20391;-85
2021/08/27 11:10:09;;;;;;;3.03;2.40;;;16.30;99.90;;;;;;6123246;23;20401;-87
2021/08/27 11:12:35;;;;;;;2.20;2.00;;;16.10;99.90;;;;;;6123525;23;20374;-86
2021/08/27 11:15:23;;;;;;;3.73;3.47;;;16.00;99.90;;;;;;6123250;23;20536;-86
2021/08/27 11:18:17;;;;;;;3.83;2.77;;;15.80;99.90;;;;;;6123337;23;20377;-86
2021/08/27 11:20:47;;;;;;;2.97;2.10;;;15.80;99.90;;;;;;6123360;23;20413;-85
2021/08/27 11:23:13;;;;;;;3.60;2.23;;;15.90;99.90;;;;;;6123349;23;20774;-85
2021/08/27 11:25:41;;;;;;;5.57;2.90;;;15.70;99.90;;;;;;6124690;23;20760;-86
2021/08/27 11:28:13;;;;;;;2.37;2.17;;;15.70;99.90;;;;;;6123050;23;20821;-84
2021/08/27 11:30:47;;;;;;;3.67;2.80;;;15.60;99.90;;;;;;6123268;23;20369;-85
2021/08/27 11:33:40;;;;;;;2.07;1.97;;;15.50;99.90;;;;;;6123130;23;20430;-85
2021/08/27 11:36:06;;;;;;;8.30;2.20;;;15.50;99.90;;;;;;6123136;23;20434;-84
2021/08/27 11:38:32;;;;;;;4.10;3.27;;;15.50;99.90;;;;;;6122968;23;20381;-84
2021/08/27 11:41:02;;;;;;;4.40;3.30;;;15.50;99.90;;;;;;6123218;23;20396;-85
2021/08/27 11:43:43;;;;;;;4.23;2.70;;;15.50;99.90;;;;;;6123164;23;20153;-86
2021/08/27 11:46:23;;;;;;;4.90;2.97;;;15.60;99.90;;;;;;6123246;23;20488;-87
2021/08/27 11:49:14;;;;;;;3.77;3.40;;;15.90;99.90;;;;;;6122827;23;20370;-85
2021/08/27 11:52:02;;;;;;;2.97;2.77;;;16.30;99.90;;;;;;6123854;23;20370;-85
2021/08/27 11:54:28;;;;;;;8.03;3.80;;;16.60;99.90;;;;;;6124889;23;20960;-85
2021/08/27 11:56:55;;;;;;;5.13;3.07;;;17.20;99.90;;;;;;6124949;23;20378;-86
2021/08/27 11:59:27;;;;;;;5.47;3.27;;;17.70;99.90;;;;;;6124708;23;20594;-86
2021/08/27 12:01:54;;;;;;;5.40;3.30;;;18.40;99.90;;;;;;6125098;23;20440;-86
2021/08/27 12:04:30;;;;;;;2.00;1.90;;;18.80;99.90;;;;;;6124843;23;20388;-86
2021/08/27 12:07:10;;;;;;;3.13;2.77;;;18.50;99.90;;;;;;6125040;23;20377;-86
2021/08/27 12:09:36;;;;;;;6.33;2.90;;;18.40;99.90;;;;;;6124404;23;20460;-85
2021/08/27 12:12:02;;;;;;;3.70;3.23;;;18.30;99.90;;;;;;6124948;23;20386;-85
2021/08/27 12:14:51;;;;;;;4.33;2.40;;;18.10;99.90;;;;;;6124665;23;20501;-85
2021/08/27 12:17:26;;;;;;;2.33;2.13;;;17.70;99.90;;;;;;6124765;23;20497;-86
2021/08/27 12:19:53;;;;;;;4.43;2.60;;;17.50;99.90;;;;;;6124447;23;20373;-85
2021/08/27 12:22:21;;;;;;;2.57;2.37;;;17.20;99.90;;;;;;6124750;23;20370;-85
2021/08/27 12:24:50;;;;;;;2.80;2.53;;;17.20;99.90;;;;;;6124640;23;20413;-85
2021/08/27 12:27:15;;;;;;;3.10;2.90;;;17.30;99.90;;;;;;6124769;23;20381;-85
2021/08/27 12:29:41;;;;;;;2.87;2.67;;;17.70;99.90;;;;;;6124479;23;20469;-86
2021/08/27 12:32:13;;;;;;;2.80;2.50;;;18.20;99.90;;;;;;6124612;23;20184;-87
2021/08/27 12:34:43;;;;;;;2.17;2.07;;;18.30;99.90;;;;;;6124479;23;20441;-86
2021/08/27 12:37:09;;;;;;;4.00;2.60;;;18.20;99.90;;;;;;6125113;23;20405;-86
2021/08/27 12:39:35;;;;;;;2.90;2.70;;;18.00;99.90;;;;;;6124425;23;20405;-86
2021/08/27 12:42:11;;;;;;;3.47;2.73;;;17.90;99.90;;;;;;6124723;23;20587;-85
2021/08/27 12:44:37;;;;;;;9.67;2.87;;;17.70;99.90;;;;;;6124490;23;20180;-86
2021/08/27 12:47:03;;;;;;;3.33;2.90;;;17.80;99.90;;;;;;6124481;23;20477;-87
2021/08/27 12:49:28;;;;;;;3.50;3.20;;;18.10;99.90;;;;;;6124385;23;20196;-85
2021/08/27 12:51:59;;;;;;;3.07;2.47;;;18.30;99.90;;;;;;6124486;23;20374;-85
2021/08/27 12:54:26;;;;;;;5.20;3.37;;;18.40;99.90;;;;;;6124385;23;20208;-85
2021/08/27 12:57:03;;;;;;;4.13;1.80;;;18.40;99.90;;;;;;6124527;23;20385;-84